createdAt,value
2017-12-01T00:00:19.285Z,100207.79
2017-12-01T00:02:46.876Z,100205.69
2017-12-01T00:05:14.405Z,100204.50
2017-12-01T00:07:41.937Z,100207.92
2017-12-01T00:10:09.521Z,100206.00
2017-12-01T00:12:37.058Z,100208.07
2017-12-01T00:15:04.588Z,100209.21
2017-12-01T00:17:32.141Z,100212.66
2017-12-01T00:19:59.686Z,100216.31
2017-12-01T00:22:27.232Z,100217.50
2017-12-01T00:24:54.816Z,100226.01
2017-12-01T00:27:22.383Z,100230.13
2017-12-01T00:29:49.920Z,100233.30
2017-12-01T00:32:17.454Z,100231.72
2017-12-01T00:34:45.046Z,100236.20
2017-12-01T00:37:12.578Z,100243.12
2017-12-01T00:39:40.118Z,100247.84
2017-12-01T00:42:07.692Z,100246.14
2017-12-01T00:44:35.226Z,100240.47
2017-12-01T00:47:02.752Z,100246.50
2017-12-01T00:49:30.349Z,100251.97
2017-12-01T00:51:57.882Z,100253.95
2017-12-01T00:54:25.413Z,100258.83
2017-12-01T00:56:53.069Z,100262.68
2017-12-01T00:59:20.615Z,100267.09
2017-12-01T01:01:48.141Z,100271.70
2017-12-01T01:04:15.688Z,100281.34
2017-12-01T01:06:43.234Z,100279.24
2017-12-01T01:09:10.760Z,100283.48
2017-12-01T01:11:38.354Z,100287.68
2017-12-01T01:14:05.884Z,100291.30
2017-12-01T01:16:33.407Z,100294.03
2017-12-01T01:19:00.980Z,100289.10
2017-12-01T01:21:28.525Z,100292.78
2017-12-01T01:23:56.069Z,100297.79
2017-12-01T01:26:23.631Z,100297.33
2017-12-01T01:28:51.174Z,100303.16
2017-12-01T01:31:18.736Z,100309.20
2017-12-01T01:33:46.265Z,100307.74
2017-12-01T01:36:13.808Z,100317.98
2017-12-01T01:38:41.327Z,100324.08
2017-12-01T01:41:09.005Z,100323.81
2017-12-01T01:43:36.520Z,100329.89
2017-12-01T01:46:04.064Z,100333.75
2017-12-01T01:48:31.663Z,100337.84
2017-12-01T01:50:59.199Z,100333.87
2017-12-01T01:53:26.750Z,100337.99
2017-12-01T01:55:54.314Z,100349.81
2017-12-01T01:58:21.884Z,100349.89
2017-12-01T02:00:49.423Z,100351.95
2017-12-01T02:03:16.946Z,100353.12
2017-12-01T02:05:44.544Z,100359.34
2017-12-01T02:08:12.072Z,100361.49
2017-12-01T02:10:39.583Z,100360.80
2017-12-01T02:13:07.186Z,100363.55
2017-12-01T02:15:34.726Z,100368.58
2017-12-01T02:18:02.288Z,100368.16
2017-12-01T02:20:29.893Z,100367.94
2017-12-01T02:22:57.429Z,100374.87
2017-12-01T02:25:24.951Z,100376.72
2017-12-01T02:27:52.523Z,100380.52
2017-12-01T02:30:20.064Z,100386.74
2017-12-01T02:32:47.649Z,100390.54
2017-12-01T02:35:15.187Z,100388.48
2017-12-01T02:37:42.863Z,100391.23
2017-12-01T02:40:10.416Z,100399.05
2017-12-01T02:42:37.968Z,100398.56
2017-12-01T02:45:05.590Z,100408.47
2017-12-01T02:47:33.150Z,100409.38
2017-12-01T02:50:00.685Z,100413.14
2017-12-01T02:52:28.257Z,100412.88
2017-12-01T02:54:55.801Z,100414.36
2017-12-01T02:57:23.397Z,100417.70
2017-12-01T02:59:50.929Z,100421.98
2017-12-01T03:02:18.464Z,100430.64
2017-12-01T03:04:46.048Z,100435.39
2017-12-01T03:07:13.571Z,100431.16
2017-12-01T03:09:41.132Z,100438.80
2017-12-01T03:12:08.729Z,100439.97
2017-12-01T03:14:36.264Z,100444.32
2017-12-01T03:17:03.803Z,100451.83
2017-12-01T03:19:31.365Z,100457.48
2017-12-01T03:21:58.913Z,100455.87
2017-12-01T03:24:26.516Z,100458.69
2017-12-01T03:26:54.065Z,100465.08
2017-12-01T03:29:21.609Z,100466.11
2017-12-01T03:31:49.208Z,100476.20
2017-12-01T03:34:16.742Z,100479.20
2017-12-01T03:36:44.288Z,100487.41
2017-12-01T03:39:11.885Z,100488.27
2017-12-01T03:41:39.433Z,100498.79
2017-12-01T03:44:06.997Z,100497.75
2017-12-01T03:46:34.579Z,100500.43
2017-12-01T03:49:02.202Z,100511.92
2017-12-01T03:51:29.748Z,100509.09
2017-12-01T03:53:57.275Z,100514.45
2017-12-01T03:56:24.829Z,100516.52
2017-12-01T03:58:52.992Z,100520.19
2017-12-01T04:01:20.577Z,100531.41
2017-12-01T04:03:48.123Z,100532.14
2017-12-01T04:06:15.815Z,100538.13
2017-12-01T04:08:43.369Z,100531.41
2017-12-01T04:11:10.964Z,100537.95
2017-12-01T04:13:38.620Z,100537.83
2017-12-01T04:16:06.168Z,100548.50
2017-12-01T04:18:33.712Z,100552.52
2017-12-01T04:21:01.313Z,100559.63
2017-12-01T04:23:28.878Z,100561.36
2017-12-01T04:25:56.420Z,100564.74
2017-12-01T04:28:23.985Z,100563.77
2017-12-01T04:30:51.572Z,100574.91
2017-12-01T04:33:19.133Z,100572.80
2017-12-01T04:35:46.701Z,100577.22
2017-12-01T04:38:14.294Z,100586.73
2017-12-01T04:40:41.859Z,100596.19
2017-12-01T04:43:09.452Z,100600.88
2017-12-01T04:45:36.991Z,100609.94
2017-12-01T04:48:04.541Z,100606.66
2017-12-01T04:50:32.287Z,100612.69
2017-12-01T04:52:59.828Z,100615.30
2017-12-01T04:55:27.375Z,100627.31
2017-12-01T04:57:54.972Z,100630.55
2017-12-01T05:00:22.508Z,100632.52
2017-12-01T05:02:50.069Z,100640.70
2017-12-01T05:05:17.793Z,100641.52
2017-12-01T05:07:45.331Z,100635.08
2017-12-01T05:10:12.881Z,100645.55
2017-12-01T05:12:40.557Z,100649.64
2017-12-01T05:15:08.159Z,100647.25
2017-12-01T05:17:35.676Z,100654.19
2017-12-01T05:20:03.422Z,100656.98
2017-12-01T05:22:30.958Z,100667.33
2017-12-01T05:24:58.501Z,100671.47
2017-12-01T05:27:26.085Z,100677.25
2017-12-01T05:29:53.632Z,100679.94
2017-12-01T05:32:21.185Z,100685.72
2017-12-01T05:34:48.760Z,100689.48
2017-12-01T05:37:16.348Z,100698.50
2017-12-01T05:39:43.902Z,100700.80
2017-12-01T05:42:11.453Z,100704.41
2017-12-01T05:44:39.026Z,100701.05
2017-12-01T05:47:06.551Z,100709.94
2017-12-01T05:49:34.109Z,100707.41
2017-12-01T05:52:01.670Z,100709.34
2017-12-01T05:54:29.257Z,100715.08
2017-12-01T05:56:56.848Z,100718.38
2017-12-01T05:59:24.426Z,100723.40
2017-12-01T06:01:51.957Z,100730.28
2017-12-01T06:04:19.628Z,100732.27
2017-12-01T06:06:47.183Z,100732.14
2017-12-01T06:09:14.712Z,100740.23
2017-12-01T06:11:42.327Z,100736.50
2017-12-01T06:14:09.919Z,100745.83
2017-12-01T06:16:37.453Z,100750.58
2017-12-01T06:19:05.005Z,100751.45
2017-12-01T06:21:32.565Z,100752.92
2017-12-01T06:24:00.105Z,100757.31
2017-12-01T06:26:27.704Z,100758.15
2017-12-01T06:28:55.253Z,100765.38
2017-12-01T06:31:22.997Z,100766.45
2017-12-01T06:33:50.541Z,100775.56
2017-12-01T06:36:18.149Z,100771.97
2017-12-01T06:38:45.712Z,100775.84
2017-12-01T06:41:13.280Z,100779.41
2017-12-01T06:43:40.862Z,100792.56
2017-12-01T06:46:08.400Z,100787.33
2017-12-01T06:48:35.997Z,100791.69
2017-12-01T06:51:03.544Z,100797.52
2017-12-01T06:53:31.065Z,100802.40
2017-12-01T06:55:58.656Z,100807.48
2017-12-01T06:58:26.223Z,100808.27
2017-12-01T07:00:53.912Z,100810.41
2017-12-01T07:03:21.480Z,100815.98
2017-12-01T07:05:49.019Z,100821.52
2017-12-01T07:08:16.585Z,100826.98
2017-12-01T07:10:44.103Z,100830.54
2017-12-01T07:13:11.782Z,100833.22
2017-12-01T07:15:39.301Z,100830.20
2017-12-01T07:18:06.821Z,100831.70
2017-12-01T07:20:34.492Z,100836.30
2017-12-01T07:23:02.017Z,100837.89
2017-12-01T07:25:29.548Z,100846.20
2017-12-01T07:27:57.317Z,100850.41
2017-12-01T07:30:24.832Z,100858.54
2017-12-01T07:32:52.345Z,100863.16
2017-12-01T07:35:20.000Z,100865.38
2017-12-01T07:37:47.688Z,100874.20
2017-12-01T07:40:15.225Z,100878.98
2017-12-01T07:42:42.816Z,100889.39
2017-12-01T07:48:14.456Z,100897.20
2017-12-01T07:50:42.018Z,100903.23
2017-12-01T07:53:09.554Z,100906.12
2017-12-01T07:55:37.132Z,100911.92
2017-12-01T07:58:04.673Z,100912.51
2017-12-01T08:00:32.199Z,100913.51
2017-12-01T08:02:59.866Z,100923.26
2017-12-01T08:05:27.398Z,100932.99
2017-12-01T08:07:54.934Z,100925.94
2017-12-01T08:10:22.505Z,100929.50
2017-12-01T08:12:50.047Z,100925.78
2017-12-01T08:15:17.624Z,100920.27
2017-12-01T08:17:45.166Z,100931.56
2017-12-01T08:20:19.832Z,100941.67
2017-12-01T08:22:53.189Z,100948.67
2017-12-01T08:25:26.455Z,100955.53
2017-12-01T08:27:53.984Z,100953.90
2017-12-01T08:30:21.560Z,100963.77
2017-12-01T08:32:49.105Z,100959.05
2017-12-01T08:35:16.612Z,100967.48
2017-12-01T08:37:44.188Z,100965.06
2017-12-01T08:40:11.925Z,100969.84
2017-12-01T08:42:39.449Z,100973.70
2017-12-01T08:45:06.997Z,100977.61
2017-12-01T08:47:34.735Z,100980.91
2017-12-01T08:50:02.252Z,100987.33
2017-12-01T08:52:29.787Z,100989.92
2017-12-01T08:54:57.333Z,100996.70
2017-12-01T08:57:24.856Z,100993.20
2017-12-01T08:59:52.420Z,100999.02
2017-12-01T09:02:19.968Z,100997.52
2017-12-01T09:04:47.649Z,101000.61
2017-12-01T09:07:15.165Z,100996.80
2017-12-01T09:09:42.675Z,101000.55
2017-12-01T09:12:10.253Z,101009.09
2017-12-01T09:14:37.814Z,101017.28
2017-12-01T09:17:05.358Z,101016.33
2017-12-01T09:19:32.922Z,101019.22
2017-12-01T09:22:00.476Z,101024.03
2017-12-01T09:24:28.052Z,101024.66
2017-12-01T09:26:55.627Z,101024.74
2017-12-01T09:29:23.153Z,101031.65
2017-12-01T09:31:50.727Z,101035.62
2017-12-01T09:34:18.248Z,101049.23
2017-12-01T09:36:46.000Z,101060.66
2017-12-01T09:39:13.521Z,101059.67
2017-12-01T09:41:41.049Z,101068.48
2017-12-01T09:44:08.764Z,101073.00
2017-12-01T09:46:36.303Z,101075.17
2017-12-01T09:49:03.827Z,101075.81
2017-12-01T09:51:31.355Z,101078.92
2017-12-01T09:53:58.878Z,101080.70
2017-12-01T09:56:26.585Z,101086.16
2017-12-01T09:58:54.110Z,101089.76
2017-12-01T10:01:21.621Z,101082.47
2017-12-01T10:03:49.186Z,101087.52
2017-12-01T10:06:16.763Z,101090.38
2017-12-01T10:08:44.337Z,101087.28
2017-12-01T10:11:11.862Z,101089.11
2017-12-01T10:13:39.393Z,101094.91
2017-12-01T10:16:06.940Z,101093.08
2017-12-01T10:18:34.512Z,101095.39
2017-12-01T10:21:02.039Z,101092.32
2017-12-01T10:23:29.551Z,101101.84
2017-12-01T10:25:57.091Z,101108.33
2017-12-01T10:28:24.613Z,101106.62
2017-12-01T10:30:52.147Z,101103.48
2017-12-01T10:33:19.860Z,101100.66
2017-12-01T10:35:47.393Z,101107.53
2017-12-01T10:38:15.000Z,101113.02
2017-12-01T10:40:42.592Z,101106.45
2017-12-01T10:43:10.123Z,101113.52
2017-12-01T10:45:37.645Z,101113.88
2017-12-01T10:48:05.300Z,101120.79
2017-12-01T10:50:32.823Z,101117.00
2017-12-01T10:53:00.344Z,101120.58
2017-12-01T10:55:27.897Z,101113.97
2017-12-01T10:57:55.415Z,101123.55
2017-12-01T11:00:22.968Z,101121.05
2017-12-01T11:02:50.480Z,101125.37
2017-12-01T11:05:18.047Z,101121.33
2017-12-01T11:07:45.573Z,101126.95
2017-12-01T11:10:13.084Z,101124.18
2017-12-01T11:12:40.625Z,101128.44
2017-12-01T11:15:08.150Z,101121.09
2017-12-01T11:17:35.730Z,101120.58
2017-12-01T11:20:03.252Z,101120.30
2017-12-01T11:22:30.768Z,101123.89
2017-12-01T11:24:58.342Z,101121.10
2017-12-01T11:27:25.859Z,101124.11
2017-12-01T11:29:53.369Z,101135.98
2017-12-01T11:32:20.917Z,101128.49
2017-12-01T11:34:48.437Z,101133.80
2017-12-01T11:37:15.972Z,101131.47
2017-12-01T11:39:43.504Z,101132.20
2017-12-01T11:42:11.188Z,101140.94
2017-12-01T11:44:38.707Z,101136.42
2017-12-01T11:47:06.226Z,101142.67
2017-12-01T11:49:33.899Z,101140.12
2017-12-01T11:52:01.426Z,101149.43
2017-12-01T11:54:28.956Z,101143.39
2017-12-01T11:56:56.494Z,101142.80
2017-12-01T11:59:24.029Z,101144.95
2017-12-01T12:01:51.598Z,101151.70
2017-12-01T12:04:19.122Z,101158.58
2017-12-01T12:06:46.692Z,101159.91
2017-12-01T12:09:14.223Z,101163.61
2017-12-01T12:11:41.828Z,101164.91
2017-12-01T12:14:09.359Z,101168.52
2017-12-01T12:16:36.896Z,101167.83
2017-12-01T12:19:04.477Z,101174.20
2017-12-01T12:21:32.013Z,101178.70
2017-12-01T12:23:59.539Z,101176.47
2017-12-01T12:26:27.125Z,101178.69
2017-12-01T12:28:54.678Z,101182.27
2017-12-01T12:31:22.207Z,101185.63
2017-12-01T12:33:49.781Z,101180.16
2017-12-01T12:36:17.316Z,101182.45
2017-12-01T12:38:44.845Z,101181.90
2017-12-01T12:41:12.539Z,101188.25
2017-12-01T12:43:40.067Z,101184.92
2017-12-01T12:46:07.609Z,101191.15
2017-12-01T12:48:35.178Z,101189.87
2017-12-01T12:51:02.723Z,101189.55
2017-12-01T12:53:30.296Z,101195.12
2017-12-01T12:55:57.839Z,101203.11
2017-12-01T12:58:25.417Z,101199.39
2017-12-01T13:00:53.008Z,101199.61
2017-12-01T13:03:20.533Z,101189.28
2017-12-01T13:05:48.087Z,101195.16
2017-12-01T13:08:15.634Z,101190.05
2017-12-01T13:10:43.238Z,101195.61
2017-12-01T13:13:10.799Z,101193.41
2017-12-01T13:15:38.366Z,101201.12
2017-12-01T13:18:05.936Z,101193.97
2017-12-01T13:20:33.459Z,101199.56
2017-12-01T13:23:01.002Z,101200.05
2017-12-01T13:25:28.691Z,101204.98
2017-12-01T13:27:56.240Z,101204.89
2017-12-01T13:30:23.789Z,101209.88
2017-12-01T13:32:51.360Z,101217.85
2017-12-01T13:35:18.985Z,101219.23
2017-12-01T13:37:46.533Z,101224.23
2017-12-01T13:40:14.077Z,101222.00
2017-12-01T13:42:41.604Z,101218.02
2017-12-01T13:45:09.185Z,101225.52
2017-12-01T13:47:36.724Z,101226.98
2017-12-01T13:50:04.271Z,101226.64
2017-12-01T13:52:31.831Z,101236.84
2017-12-01T13:54:59.525Z,101236.82
2017-12-01T13:57:27.044Z,101233.70
2017-12-01T13:59:54.580Z,101237.09
2017-12-01T14:02:22.144Z,101237.03
2017-12-01T14:04:49.701Z,101243.12
2017-12-01T14:07:17.272Z,101244.80
2017-12-01T14:09:44.798Z,101245.11
2017-12-01T14:12:12.355Z,101242.90
2017-12-01T14:14:39.943Z,101245.39
2017-12-01T14:17:07.480Z,101244.58
2017-12-01T14:19:35.249Z,101251.05
2017-12-01T14:22:02.771Z,101251.34
2017-12-01T14:24:30.297Z,101255.45
2017-12-01T14:26:57.885Z,101260.49
2017-12-01T14:29:25.396Z,101264.77
2017-12-01T14:31:52.912Z,101261.48
2017-12-01T14:34:20.682Z,101268.27
2017-12-01T14:36:48.226Z,101270.33
2017-12-01T14:39:15.752Z,101271.92
2017-12-01T14:41:43.325Z,101269.48
2017-12-01T14:44:10.841Z,101282.44
2017-12-01T14:46:38.382Z,101282.27
2017-12-01T14:49:06.736Z,101288.38
2017-12-01T14:51:34.266Z,101286.12
2017-12-01T14:54:01.894Z,101297.85
2017-12-01T14:56:29.448Z,101293.31
2017-12-01T14:58:57.020Z,101299.47
2017-12-01T15:01:25.422Z,101306.47
2017-12-01T15:03:52.977Z,101303.91
2017-12-01T15:06:20.525Z,101312.72
2017-12-01T15:08:48.104Z,101318.56
2017-12-01T15:11:15.634Z,101319.55
2017-12-01T15:13:43.148Z,101322.09
2017-12-01T15:16:10.729Z,101327.90
2017-12-01T15:18:38.258Z,101331.80
2017-12-01T15:21:05.771Z,101335.05
2017-12-01T15:23:33.320Z,101343.53
2017-12-01T15:26:00.836Z,101343.55
2017-12-01T15:28:28.570Z,101351.16
2017-12-01T15:30:56.088Z,101352.49
2017-12-01T15:33:23.599Z,101354.74
2017-12-01T15:35:51.237Z,101354.91
2017-12-01T15:38:18.790Z,101354.73
2017-12-01T15:40:46.331Z,101357.27
2017-12-01T15:43:13.889Z,101365.41
2017-12-01T15:45:41.473Z,101362.46
2017-12-01T15:48:09.002Z,101367.28
2017-12-01T15:50:36.540Z,101365.31
2017-12-01T15:53:04.120Z,101365.52
2017-12-01T15:55:31.665Z,101373.95
2017-12-01T15:57:59.202Z,101387.16
2017-12-01T16:00:26.805Z,101392.52
2017-12-01T16:02:54.383Z,101390.08
2017-12-01T16:05:21.928Z,101399.47
2017-12-01T16:07:49.493Z,101396.56
2017-12-01T16:10:17.049Z,101396.94
2017-12-01T16:12:44.648Z,101402.01
2017-12-01T16:15:12.205Z,101399.95
2017-12-01T16:17:39.755Z,101400.72
2017-12-01T16:20:07.416Z,101399.05
2017-12-01T16:22:34.931Z,101405.36
2017-12-01T16:25:02.456Z,101413.20
2017-12-01T16:27:30.057Z,101412.55
2017-12-01T16:29:57.597Z,101415.56
2017-12-01T16:32:25.162Z,101413.78
2017-12-01T16:34:52.724Z,101413.56
2017-12-01T16:37:20.263Z,101420.42
2017-12-01T16:39:47.780Z,101417.50
2017-12-01T16:42:15.348Z,101430.44
2017-12-01T16:44:42.873Z,101431.45
2017-12-01T16:47:10.457Z,101429.23
2017-12-01T16:49:37.988Z,101425.32
2017-12-01T16:52:05.536Z,101429.04
2017-12-01T16:54:33.105Z,101435.73
2017-12-01T16:57:00.668Z,101433.09
2017-12-01T16:59:28.231Z,101437.27
2017-12-01T17:01:55.800Z,101433.14
2017-12-01T17:04:23.393Z,101442.55
2017-12-01T17:06:50.941Z,101444.40
2017-12-01T17:09:18.490Z,101449.27
2017-12-01T17:11:46.052Z,101448.22
2017-12-01T17:14:13.638Z,101456.61
2017-12-01T17:16:41.237Z,101459.31
2017-12-01T17:19:08.772Z,101456.81
2017-12-01T17:21:36.325Z,101460.97
2017-12-01T17:24:03.883Z,101459.73
2017-12-01T17:26:31.425Z,101458.28
2017-12-01T17:28:59.192Z,101462.48
2017-12-01T17:31:26.740Z,101470.47
2017-12-01T17:33:54.274Z,101466.12
2017-12-01T17:36:21.925Z,101469.09
2017-12-01T17:38:49.464Z,101481.05
2017-12-01T17:41:17.018Z,101476.94
2017-12-01T17:43:44.616Z,101483.19
2017-12-01T17:46:12.152Z,101486.53
2017-12-01T17:48:39.696Z,101485.95
2017-12-01T17:51:07.252Z,101489.26
2017-12-01T17:53:35.038Z,101485.55
2017-12-01T17:56:02.585Z,101490.20
2017-12-01T17:58:30.140Z,101493.39
2017-12-01T18:00:57.737Z,101490.81
2017-12-01T18:03:25.296Z,101501.72
2017-12-01T18:05:52.822Z,101501.50
2017-12-01T18:08:20.416Z,101498.99
2017-12-01T18:10:47.960Z,101508.23
2017-12-01T18:13:15.509Z,101502.62
2017-12-01T18:15:43.193Z,101508.91
2017-12-01T18:18:10.727Z,101519.19
2017-12-01T18:20:38.275Z,101525.08
2017-12-01T18:23:05.835Z,101528.33
2017-12-01T18:25:33.392Z,101533.55
2017-12-01T18:28:00.980Z,101532.14
2017-12-01T18:30:28.521Z,101535.19
2017-12-01T18:32:56.125Z,101538.78
2017-12-01T18:35:23.678Z,101539.88
2017-12-01T18:37:51.388Z,101543.98
2017-12-01T18:40:18.934Z,101552.83
2017-12-01T18:42:46.475Z,101553.48
2017-12-01T18:45:14.256Z,101557.98
2017-12-01T18:47:41.829Z,101563.95
2017-12-01T18:50:09.390Z,101565.64
2017-12-01T18:52:36.961Z,101569.03
2017-12-01T18:55:04.519Z,101566.98
2017-12-01T18:57:32.219Z,101566.92
2017-12-01T18:59:59.768Z,101575.23
2017-12-01T19:02:27.303Z,101572.80
2017-12-01T19:04:54.916Z,101577.10
2017-12-01T19:07:22.462Z,101583.55
2017-12-01T19:09:50.021Z,101586.88
2017-12-01T19:12:17.568Z,101592.22
2017-12-01T19:14:45.129Z,101594.95
2017-12-01T19:17:12.686Z,101588.66
2017-12-01T19:19:40.276Z,101594.86
2017-12-01T19:22:07.853Z,101598.05
2017-12-01T19:24:35.472Z,101599.91
2017-12-01T19:27:03.163Z,101601.80
2017-12-01T19:29:30.728Z,101604.89
2017-12-01T19:31:58.322Z,101605.59
2017-12-01T19:34:25.860Z,101609.27
2017-12-01T19:36:53.523Z,101602.45
2017-12-01T19:39:21.066Z,101601.09
2017-12-01T19:41:48.650Z,101605.00
2017-12-01T19:44:16.220Z,101608.05
2017-12-01T19:46:43.760Z,101607.84
2017-12-01T19:49:11.345Z,101620.30
2017-12-01T19:51:38.889Z,101623.01
2017-12-01T19:54:06.436Z,101623.44
2017-12-01T19:56:34.036Z,101632.23
2017-12-01T19:59:01.590Z,101631.13
2017-12-01T20:01:29.119Z,101637.34
2017-12-01T20:03:56.685Z,101636.02
2017-12-01T20:06:24.284Z,101646.01
2017-12-01T20:08:51.836Z,101643.92
2017-12-01T20:11:19.377Z,101650.78
2017-12-01T20:13:46.973Z,101655.70
2017-12-01T20:16:19.247Z,101653.77
2017-12-01T20:18:46.851Z,101654.08
2017-12-01T20:21:14.445Z,101654.13
2017-12-01T20:23:42.063Z,101650.70
2017-12-01T20:26:09.640Z,101655.14
2017-12-01T20:28:37.338Z,101657.55
2017-12-01T20:31:04.888Z,101649.09
2017-12-01T20:33:32.420Z,101655.20
2017-12-01T20:36:00.140Z,101658.92
2017-12-01T20:38:28.070Z,101666.16
2017-12-01T20:40:55.629Z,101667.70
2017-12-01T20:43:24.322Z,101667.70
2017-12-01T20:45:51.885Z,101671.11
2017-12-01T20:48:19.560Z,101669.84
2017-12-01T20:50:47.100Z,101675.72
2017-12-01T20:53:14.638Z,101675.05
2017-12-01T20:55:42.347Z,101668.34
2017-12-01T20:58:09.871Z,101675.45
2017-12-01T21:00:37.429Z,101678.80
2017-12-01T21:03:05.081Z,101687.28
2017-12-01T21:05:32.615Z,101685.98
2017-12-01T21:08:00.161Z,101689.81
2017-12-01T21:10:27.732Z,101690.36
2017-12-01T21:12:55.264Z,101687.25
2017-12-01T21:15:22.816Z,101690.59
2017-12-01T21:17:50.349Z,101691.50
2017-12-01T21:20:17.905Z,101700.41
2017-12-01T21:22:45.444Z,101702.88
2017-12-01T21:25:13.177Z,101708.70
2017-12-01T21:27:40.725Z,101707.42
2017-12-01T21:30:08.256Z,101707.96
2017-12-01T21:32:35.819Z,101709.14
2017-12-01T21:35:03.514Z,101710.52
2017-12-01T21:37:31.088Z,101709.62
2017-12-01T21:39:58.636Z,101705.02
2017-12-01T21:42:26.379Z,101709.89
2017-12-01T21:44:53.933Z,101718.13
2017-12-01T21:47:21.485Z,101715.55
2017-12-01T21:49:49.045Z,101717.79
2017-12-01T21:52:16.708Z,101715.22
2017-12-01T21:54:44.234Z,101720.76
2017-12-01T21:57:11.757Z,101719.08
2017-12-01T21:59:39.337Z,101721.36
2017-12-01T22:02:06.857Z,101720.90
2017-12-01T22:04:34.380Z,101728.59
2017-12-01T22:07:02.063Z,101727.14
2017-12-01T22:09:29.583Z,101728.44
2017-12-01T22:11:57.114Z,101730.82
2017-12-01T22:14:24.684Z,101728.60
2017-12-01T22:16:52.219Z,101725.19
2017-12-01T22:19:19.797Z,101723.80
2017-12-01T22:21:47.344Z,101727.56
2017-12-01T22:24:14.882Z,101734.30
2017-12-01T22:26:42.469Z,101737.34
2017-12-01T22:29:09.979Z,101735.86
2017-12-01T22:31:37.532Z,101738.39
2017-12-01T22:34:05.108Z,101735.50
2017-12-01T22:36:32.661Z,101739.07
2017-12-01T22:39:00.184Z,101744.98
2017-12-01T22:41:27.752Z,101745.80
2017-12-01T22:43:55.288Z,101749.25
2017-12-01T22:46:22.981Z,101742.11
2017-12-01T22:48:50.663Z,101752.67
2017-12-01T22:51:18.204Z,101752.59
2017-12-01T22:53:45.745Z,101750.18
2017-12-01T22:56:13.476Z,101752.37
2017-12-01T22:58:41.005Z,101756.93
2017-12-01T23:01:08.596Z,101747.77
2017-12-01T23:03:36.174Z,101757.38
2017-12-01T23:06:03.695Z,101756.86
2017-12-01T23:08:31.212Z,101755.02
2017-12-01T23:10:58.755Z,101761.05
2017-12-01T23:13:26.285Z,101763.05
2017-12-01T23:15:53.886Z,101762.80
2017-12-01T23:18:21.421Z,101765.43
2017-12-01T23:20:48.960Z,101771.25
2017-12-01T23:23:16.552Z,101763.80
2017-12-01T23:25:44.089Z,101771.59
2017-12-01T23:28:11.675Z,101776.59
2017-12-01T23:30:39.244Z,101776.78
2017-12-01T23:33:06.843Z,101773.00
2017-12-01T23:35:34.381Z,101787.20
2017-12-01T23:38:01.961Z,101787.66
2017-12-01T23:40:29.488Z,101796.13
2017-12-01T23:42:57.017Z,101794.94
2017-12-01T23:45:24.612Z,101795.07
2017-12-01T23:47:52.197Z,101797.58
2017-12-01T23:50:19.731Z,101799.33
2017-12-01T23:52:47.274Z,101801.98
2017-12-01T23:55:14.829Z,101807.19
2017-12-01T23:57:42.381Z,101813.44
